Amberley Military, Queensland

8:31 AM AEST on August 03, 2015 (GMT +1000)
Ade1957, Wulkuraka | | Change Station
CLOSE
Current Station
Personal Weather Station
Location: Wulkuraka, QUEENSLAND
Elevation: 98 ft
Nearby Weather Stations

Elev 98 ft 27.61 °S, 152.74 °E | Updated 10 seconds ago

Clear
Clear
55.0 °F
Feels Like 55.0 °F
N
0.0
Wind Variable Wind from South
Gusts 0.0 mph

Today
High -- | Low -- °F
--% Chance of Precip.
Yesterday
High -- | Low -- °F
Precip. -- in
6:29 AM 5:21 PM
Waning Gibbous, 91% visible
Pressure 30.09 in
Visibility -9999.0 miles
Clouds
Dew Point 50 °F
Humidity 84%
Rainfall 0.00 in
Snow Depth Not available.
UV 1.0 out of 12
Pollen Not available.
Air Quality Not available.
Flu Activity Not available.
METAR YAMB 022200Z 19003KT CAVOK 10/09 Q1019 FM2200 20004KT CAVOK FM2300 33006KT CAVOK

More Conditions Fewer Conditions

Pressure 30.09 in
Visibility -9999.0 miles
Clouds
Dew Point 50 °F
Humidity 84%
Rainfall 0.00 in
Snow Depth Not available.
UV 1.0 out of 12
Pollen Not available.
Air Quality Not available.
Flu Activity Not available.
METAR YAMB 022200Z 19003KT CAVOK 10/09 Q1019 FM2200 20004KT CAVOK FM2300 33006KT CAVOK

More Conditions Fewer Conditions

10-Day Weather Forecast

×

Almanac

Astronomy

Aug. 03, 2015 Rise Set
Actual Time
Civil Twilight
Nautical Twilight
Astronomical Twilight
Moon
Length of Visible Light
Length of Day
Tomorrow will be .
, % of the Moon is Illuminated

Today's Extremes

Country Highs Country Lows

Community

WunderPhotos

Upload Photos

1,843,400 photos uploaded!

WunderBlogs® & News

Nearby

Air Quality

  Air Quality AQ Index Pollutant
Not available.

Snow Depth

Station Depth Elevation

Earthquake Activity

City Distance Mag. Time & Date
Minimum magnitude displayed is 2.5.

Coastal Water Temperatures

Place Temperature

Stations

Nearby Weather Stations

Station Location Temp. Windchill Dew Point Humidity Wind Precip. Elev Updated Type